createdAt,value
2022-11-23T00:04:47.240Z,52.35
2022-11-23T00:09:53.563Z,47.63
2022-11-23T00:14:59.624Z,48.33
2022-11-23T00:20:09.901Z,52.00
2022-11-23T00:25:16.476Z,46.38
2022-11-23T00:30:23.024Z,49.17
2022-11-23T00:35:31.105Z,43.85
2022-11-23T00:40:40.396Z,40.75
2022-11-23T00:45:46.877Z,47.63
2022-11-23T00:50:54.570Z,44.28
2022-11-23T00:56:01.090Z,40.58
2022-11-23T01:01:10.886Z,43.90
2022-11-23T01:06:21.990Z,49.03
2022-11-23T01:11:31.336Z,46.65
2022-11-23T01:16:40.787Z,48.13
2022-11-23T01:21:51.492Z,46.70
2022-11-23T01:26:57.935Z,47.28
2022-11-23T01:32:06.118Z,47.97
2022-11-23T01:37:13.793Z,45.15
2022-11-23T01:42:20.233Z,45.10
2022-11-23T01:47:27.572Z,50.03
2022-11-23T01:52:35.578Z,49.15
2022-11-23T01:57:45.981Z,43.37
2022-11-23T02:02:58.191Z,44.95
2022-11-23T02:08:07.515Z,47.38
2022-11-23T02:13:15.798Z,40.90
2022-11-23T02:18:25.379Z,50.23
2022-11-23T02:23:43.508Z,45.47
2022-11-23T02:28:59.888Z,49.67
2022-11-23T02:34:08.624Z,45.08
2022-11-23T02:39:20.363Z,45.33
2022-11-23T02:55:30.856Z,43.42
2022-11-23T03:00:42.349Z,43.95
2022-11-23T03:05:49.152Z,48.85
2022-11-23T03:10:55.308Z,44.42
2022-11-23T03:16:04.471Z,50.60
2022-11-23T03:21:11.406Z,40.97
2022-11-23T03:26:18.297Z,44.67
2022-11-23T03:31:35.577Z,42.85
2022-11-23T03:36:42.088Z,45.35
2022-11-23T03:41:48.587Z,44.42
2022-11-23T03:46:57.147Z,41.45
2022-11-23T03:52:04.041Z,45.83
2022-11-23T03:57:10.483Z,42.00
2022-11-23T04:02:18.561Z,41.17
2022-11-23T04:07:34.122Z,41.13
2022-11-23T04:12:43.674Z,36.97
2022-11-23T04:17:51.259Z,46.10
2022-11-23T04:22:58.022Z,42.70
2022-11-23T04:28:06.457Z,38.37
2022-11-23T04:33:14.492Z,41.05
2022-11-23T04:38:20.901Z,38.53
2022-11-23T04:43:27.969Z,44.60
2022-11-23T04:48:35.992Z,39.90
2022-11-23T04:53:43.632Z,41.33
2022-11-23T04:58:50.907Z,44.45
2022-11-23T05:03:59.498Z,39.38
2022-11-23T05:09:07.048Z,38.67
2022-11-23T05:14:32.209Z,43.35
2022-11-23T05:19:39.868Z,34.78
2022-11-23T05:24:46.953Z,36.00
2022-11-23T05:29:57.566Z,37.10
2022-11-23T05:35:05.443Z,38.88
2022-11-23T05:40:14.317Z,36.92
2022-11-23T05:45:21.880Z,44.03
2022-11-23T05:50:33.497Z,38.20
2022-11-23T05:56:05.924Z,37.05
2022-11-23T06:01:17.674Z,34.95
2022-11-23T06:06:25.964Z,31.30
2022-11-23T06:11:33.433Z,34.45
2022-11-23T06:16:45.844Z,33.60
2022-11-23T06:22:15.806Z,33.45
2022-11-23T06:27:38.408Z,38.00
2022-11-23T06:32:53.725Z,34.28
2022-11-23T06:38:04.053Z,34.58
2022-11-23T06:43:10.731Z,30.98
2022-11-23T06:48:21.519Z,30.38
2022-11-23T06:53:30.436Z,28.23
2022-11-23T06:58:41.861Z,29.75
2022-11-23T07:03:52.517Z,34.67
2022-11-23T07:09:06.563Z,27.42
2022-11-23T07:14:38.780Z,30.67
2022-11-23T07:19:45.192Z,27.65
2022-11-23T07:24:53.027Z,25.42
2022-11-23T07:29:59.099Z,30.92
2022-11-23T07:35:05.841Z,25.10
2022-11-23T07:40:17.977Z,29.70
2022-11-23T07:45:24.574Z,30.17
2022-11-23T07:50:34.667Z,30.85
2022-11-23T07:55:42.467Z,27.35
2022-11-23T08:00:48.689Z,32.80
2022-11-23T08:05:54.828Z,31.67
2022-11-23T08:11:02.433Z,28.45
2022-11-23T08:16:09.457Z,29.33
2022-11-23T08:21:15.585Z,26.38
2022-11-23T08:26:23.214Z,33.67
2022-11-23T08:31:29.473Z,26.35
2022-11-23T08:36:35.627Z,32.92
2022-11-23T08:41:43.870Z,26.33
2022-11-23T08:46:51.203Z,30.98
2022-11-23T08:51:57.406Z,25.05
2022-11-23T08:57:05.108Z,51.63
2022-11-23T09:02:14.201Z,26.05
2022-11-23T09:07:20.585Z,29.75
2022-11-23T09:12:28.483Z,27.17
2022-11-23T09:17:34.782Z,30.75
2022-11-23T09:22:41.177Z,28.73
2022-11-23T09:27:49.583Z,27.80
2022-11-23T09:32:58.328Z,24.63
2022-11-23T09:38:04.657Z,26.92
2022-11-23T09:43:42.049Z,26.75
2022-11-23T09:49:17.806Z,26.02
2022-11-23T09:54:34.117Z,25.95
2022-11-23T09:59:47.497Z,29.42
2022-11-23T10:04:55.229Z,25.20
2022-11-23T10:10:10.692Z,22.38
2022-11-23T10:15:27.194Z,25.63
2022-11-23T10:21:00.387Z,24.98
2022-11-23T10:26:10.775Z,28.88
2022-11-23T10:31:21.738Z,29.77
2022-11-23T10:36:28.152Z,27.77
2022-11-23T10:41:34.610Z,20.92
2022-11-23T10:46:43.468Z,28.02
2022-11-23T10:51:58.993Z,26.13
2022-11-23T10:57:30.177Z,32.00
2022-11-23T11:02:44.693Z,27.90
2022-11-23T11:07:51.418Z,24.10
2022-11-23T11:12:57.653Z,31.55
2022-11-23T11:18:05.435Z,30.55
2022-11-23T11:23:21.731Z,24.23
2022-11-23T11:28:35.964Z,26.00
2022-11-23T11:33:48.431Z,25.10
2022-11-23T11:39:18.697Z,31.30
2022-11-23T11:44:28.469Z,30.17
2022-11-23T11:49:43.473Z,29.63
2022-11-23T11:54:55.093Z,31.45
2022-11-23T12:00:09.617Z,23.60
2022-11-23T12:05:25.658Z,28.10
2022-11-23T12:10:40.203Z,35.45
2022-11-23T12:15:50.896Z,30.45
2022-11-23T12:21:07.048Z,25.10
2022-11-23T12:26:27.863Z,26.85
2022-11-23T12:31:44.276Z,26.80
2022-11-23T12:37:14.701Z,35.08
2022-11-23T12:42:28.062Z,28.67
2022-11-23T12:47:47.097Z,37.00
2022-11-23T12:53:07.075Z,28.08
2022-11-23T12:58:23.041Z,29.05
2022-11-23T13:04:09.123Z,35.55
2022-11-23T13:09:33.238Z,28.77
2022-11-23T13:14:50.911Z,30.95
2022-11-23T13:20:17.908Z,30.85
2022-11-23T13:25:29.061Z,33.88
2022-11-23T13:31:13.809Z,31.63
2022-11-23T13:36:11.212Z,28.85
2022-11-23T13:42:02.139Z,26.83
2022-11-23T13:47:20.922Z,28.25
2022-11-23T13:52:37.163Z,33.55
2022-11-23T13:57:47.038Z,38.33
2022-11-23T14:02:53.383Z,30.75
2022-11-23T14:08:03.320Z,27.38
2022-11-23T14:13:20.735Z,26.15
2022-11-23T14:18:57.906Z,30.55
2022-11-23T14:24:38.598Z,30.77
2022-11-23T14:30:09.247Z,28.80
2022-11-23T14:35:30.081Z,29.95
2022-11-23T14:41:04.302Z,28.95
2022-11-23T14:46:19.632Z,29.50
2022-11-23T14:51:28.162Z,28.27
2022-11-23T14:56:38.525Z,26.63
2022-11-23T15:01:52.549Z,30.30
2022-11-23T15:07:03.936Z,32.10
2022-11-23T15:12:28.275Z,31.70
2022-11-23T15:17:36.680Z,37.28
2022-11-23T15:22:46.092Z,36.42
2022-11-23T15:27:52.734Z,31.77
2022-11-23T15:33:02.096Z,34.20
2022-11-23T15:38:17.763Z,35.28
2022-11-23T15:43:26.970Z,34.50
2022-11-23T15:48:37.641Z,32.92
2022-11-23T15:53:51.079Z,33.72
2022-11-23T15:58:58.286Z,37.80
2022-11-23T16:04:08.239Z,36.83
2022-11-23T16:09:54.629Z,45.65
2022-11-23T16:15:42.096Z,49.40
2022-11-23T16:20:53.488Z,45.72
2022-11-23T16:26:04.022Z,53.95
2022-11-23T16:31:31.971Z,46.70
2022-11-23T16:36:41.022Z,46.30
2022-11-23T16:41:47.980Z,44.03
2022-11-23T16:46:54.501Z,43.10
2022-11-23T16:52:02.847Z,47.13
2022-11-23T16:57:16.288Z,36.50
2022-11-23T17:02:23.586Z,49.92
2022-11-23T17:07:33.223Z,52.25
2022-11-23T17:12:41.457Z,49.22
2022-11-23T17:17:48.595Z,48.47
2022-11-23T17:23:00.883Z,36.70
2022-11-23T17:28:17.318Z,45.97
2022-11-23T17:33:24.776Z,55.38
2022-11-23T17:38:34.228Z,50.67
2022-11-23T17:43:41.191Z,49.70
2022-11-23T17:48:57.377Z,43.63
2022-11-23T17:54:06.875Z,52.72
2022-11-23T17:59:15.195Z,53.72
2022-11-23T18:04:22.480Z,49.35
2022-11-23T18:09:31.803Z,45.67
2022-11-23T18:14:39.566Z,48.20
2022-11-23T18:19:46.987Z,49.47
2022-11-23T18:24:56.771Z,45.88
2022-11-23T18:30:10.201Z,43.03
2022-11-23T18:35:19.033Z,51.72
2022-11-23T18:40:29.213Z,47.33
2022-11-23T18:45:37.134Z,46.50
2022-11-23T18:50:44.884Z,47.83
2022-11-23T18:55:59.018Z,41.72
2022-11-23T19:01:13.337Z,48.25
2022-11-23T19:06:24.083Z,45.40
2022-11-23T19:11:33.265Z,45.70
2022-11-23T19:16:41.046Z,42.72
2022-11-23T19:21:48.205Z,47.80
2022-11-23T19:26:57.168Z,47.85
2022-11-23T19:32:04.779Z,45.60
2022-11-23T19:37:12.524Z,39.95
2022-11-23T19:42:21.736Z,45.63
2022-11-23T19:47:32.419Z,44.30
2022-11-23T19:53:10.726Z,43.78
2022-11-23T19:58:10.314Z,44.05
2022-11-23T20:08:28.219Z,48.22
2022-11-23T20:18:47.935Z,46.92
2022-11-23T20:24:04.365Z,52.40
2022-11-23T20:29:15.983Z,45.28
2022-11-23T20:34:26.404Z,44.50
2022-11-23T20:39:35.002Z,41.83
2022-11-23T20:44:45.235Z,43.58
2022-11-23T20:49:52.823Z,42.70
2022-11-23T20:55:00.284Z,45.78
2022-11-23T21:00:11.944Z,40.05
2022-11-23T21:05:19.770Z,40.00
2022-11-23T21:10:44.058Z,45.20
2022-11-23T21:15:52.270Z,42.10
2022-11-23T21:21:03.458Z,45.17
2022-11-23T21:26:10.718Z,46.58
2022-11-23T21:31:19.274Z,44.25
2022-11-23T21:36:26.955Z,38.22
2022-11-23T21:41:33.884Z,40.17
2022-11-23T21:46:43.096Z,38.67
2022-11-23T21:51:50.621Z,42.13
2022-11-23T21:56:57.357Z,39.42
2022-11-23T22:02:05.625Z,37.20
2022-11-23T22:07:12.662Z,38.33
2022-11-23T22:12:19.074Z,42.22
2022-11-23T22:17:28.043Z,47.72
2022-11-23T22:27:40.486Z,35.92
2022-11-23T22:32:48.701Z,38.40
2022-11-23T22:37:55.878Z,34.28
2022-11-23T22:43:04.115Z,42.92
2022-11-23T22:48:12.225Z,34.00
2022-11-23T22:53:18.542Z,37.75
2022-11-23T22:58:25.011Z,40.38
2022-11-23T23:09:33.760Z,42.55
2022-11-23T23:14:40.125Z,38.85
2022-11-23T23:19:47.962Z,39.58
2022-11-23T23:24:54.334Z,33.28
2022-11-23T23:30:01.412Z,33.70
2022-11-23T23:35:11.760Z,37.50
2022-11-23T23:45:24.458Z,36.28
2022-11-23T23:50:32.401Z,31.60
2022-11-23T23:55:38.721Z,31.38
